East Monroe, Ohio
Current Conditions -  °F | °C
As of 2:54 PM on Saturday 25 Oct 2014 (Local Time) from KILN Reporting Station
Light Rain Light Rain  
Wind Chill: 68°   Ceiling: Unl
Heat Index: 68°   Visibility: 8mi
Dew Point: 54°   Wind: 14mph
Humidity: 61%   Direction: 260°W
Pressure: 29.91"   Gusts: NA
Location:  39.3503°N, 83.5434°W
Report Text: KILN 251854Z AUTO 26012KT 8SM -RA CLR 20/12 A2991 RMK AO2 RAB03 SLP130 P0000 T02000122
Loading
Personal Weather Stations






























Interactive Weather Map
Tropical Storm Tracking
New forecast layout! Learn more

10-Day Weather Forecast

Advertisements
Track Severe Weather on mobile